Time;durP1;ratioP1;P1;durP2;ratioP2;P2;SDS_P1;SDS_P2;PMS_P1;PMS_P2;Temp;Humidity;BMP_temperature;BMP_pressure;BME280_temperature;BME280_humidity;BME280_pressure;Samples;Min_cycle;Max_cycle;Signal;HPM_P1;HPM_P2
2023/11/15 00:00:09;;;;;;;14.48;7.70;;;9.80;99.90;;;;;;4935869;28;20055;-91
2023/11/15 00:02:38;;;;;;;15.38;7.60;;;9.80;99.90;;;;;;4936678;28;20063;-93
2023/11/15 00:05:07;;;;;;;11.23;7.03;;;9.80;99.90;;;;;;4946254;28;20142;-93
2023/11/15 00:07:36;;;;;;;14.13;6.70;;;9.80;99.90;;;;;;4938351;28;20095;-92
2023/11/15 00:10:06;;;;;;;10.25;6.03;;;9.80;99.90;;;;;;4909951;28;20055;-94
2023/11/15 00:12:36;;;;;;;11.27;6.43;;;9.80;99.90;;;;;;4936044;28;20059;-92
2023/11/15 00:15:06;;;;;;;11.65;5.65;;;9.80;99.90;;;;;;4939648;28;20555;-92
2023/11/15 00:17:36;;;;;;;9.50;5.40;;;9.80;99.90;;;;;;4941325;28;20061;-93
2023/11/15 00:20:08;;;;;;;11.80;6.15;;;9.80;99.90;;;;;;4942428;28;20082;-91
2023/11/15 00:22:36;;;;;;;9.73;5.50;;;9.80;99.90;;;;;;4947356;28;23238;-92
2023/11/15 00:25:07;;;;;;;10.38;5.97;;;9.90;99.90;;;;;;4939481;28;20062;-93
2023/11/15 00:27:37;;;;;;;10.02;5.53;;;9.80;99.90;;;;;;4939050;28;20067;-91
2023/11/15 00:30:10;;;;;;;14.48;5.90;;;9.80;99.90;;;;;;4943154;28;20055;-92
2023/11/15 00:32:39;;;;;;;;;;;9.80;99.90;;;;;;4959777;28;20102;-94
2023/11/15 00:35:12;;;;;;;10.70;5.43;;;9.90;99.90;;;;;;4942499;28;19926;-92
2023/11/15 00:37:42;;;;;;;10.30;5.47;;;9.80;99.90;;;;;;4958429;28;20106;-91
2023/11/15 00:40:13;;;;;;;15.02;6.65;;;9.80;99.90;;;;;;4962206;28;20050;-92
2023/11/15 00:42:44;;;;;;;12.93;6.43;;;9.80;99.90;;;;;;4956042;28;20043;-93
2023/11/15 00:45:14;;;;;;;13.60;6.78;;;9.80;99.90;;;;;;4956942;28;20054;-93
2023/11/15 00:47:42;;;;;;;15.93;7.80;;;9.90;99.90;;;;;;4942443;29;20084;-91
2023/11/15 00:50:11;;;;;;;12.95;7.22;;;9.80;99.90;;;;;;4944712;28;20498;-91
2023/11/15 00:52:40;;;;;;;17.27;6.90;;;9.80;99.90;;;;;;4941057;28;20408;-93
2023/11/15 00:55:09;;;;;;;13.50;6.38;;;9.80;99.90;;;;;;4941398;28;20063;-92
2023/11/15 00:57:38;;;;;;;11.55;5.45;;;9.90;99.90;;;;;;4942537;28;20055;-91
2023/11/15 01:00:23;;;;;;;12.02;5.65;;;9.80;99.90;;;;;;4956858;28;20050;-92
2023/11/15 01:02:55;;;;;;;12.55;5.20;;;9.80;99.90;;;;;;4941478;29;20067;-90
2023/11/15 01:05:24;;;;;;;7.38;4.15;;;9.80;99.90;;;;;;4956070;28;20083;-92
2023/11/15 01:07:53;;;;;;;10.63;4.85;;;9.80;99.90;;;;;;4956555;28;20061;-93
2023/11/15 01:10:24;;;;;;;10.70;5.03;;;9.80;99.90;;;;;;4944299;28;20047;-91
2023/11/15 01:12:54;;;;;;;7.60;4.28;;;9.80;99.90;;;;;;4957339;28;20055;-91
2023/11/15 01:15:24;;;;;;;9.80;4.65;;;9.80;99.90;;;;;;4940299;29;20106;-91
2023/11/15 01:17:56;;;;;;;9.35;4.57;;;9.80;99.90;;;;;;4941892;29;20051;-92
2023/11/15 01:20:26;;;;;;;8.52;4.85;;;9.80;99.90;;;;;;4939829;28;20054;-92
2023/11/15 01:22:55;;;;;;;12.25;4.75;;;9.80;99.90;;;;;;4940572;29;20051;-90
2023/11/15 01:25:24;;;;;;;10.95;4.95;;;9.80;99.90;;;;;;4958714;28;20063;-91
2023/11/15 01:27:53;;;;;;;10.82;4.95;;;9.70;99.90;;;;;;4956927;28;20083;-92
2023/11/15 01:30:22;;;;;;;8.70;4.53;;;9.80;99.90;;;;;;4958963;28;20175;-92
2023/11/15 01:32:52;;;;;;;10.50;4.65;;;9.80;99.90;;;;;;4940311;28;20059;-92
2023/11/15 01:35:23;;;;;;;10.10;5.32;;;9.70;99.90;;;;;;4944482;28;20106;-93
2023/11/15 01:37:53;;;;;;;10.60;5.60;;;9.70;99.90;;;;;;4927606;29;20507;-91
2023/11/15 01:40:22;;;;;;;9.50;5.03;;;9.70;99.90;;;;;;4942842;29;20051;-92
2023/11/15 01:42:51;;;;;;;9.48;5.03;;;9.70;99.90;;;;;;4942094;28;20043;-91
2023/11/15 01:45:20;;;;;;;15.18;7.25;;;9.70;99.90;;;;;;4941716;28;20054;-90
2023/11/15 01:47:48;;;;;;;23.05;10.13;;;9.70;99.90;;;;;;4937696;28;20061;-91
2023/11/15 01:50:19;;;;;;;20.08;9.07;;;9.70;99.90;;;;;;4941362;28;22285;-94
2023/11/15 01:52:48;;;;;;;15.73;7.80;;;9.70;99.90;;;;;;4940888;29;22603;-92
2023/11/15 01:55:19;;;;;;;15.57;7.95;;;9.70;99.90;;;;;;4956345;28;20055;-93
2023/11/15 01:57:49;;;;;;;11.63;6.13;;;9.70;99.90;;;;;;4942896;28;20556;-90
2023/11/15 02:00:20;;;;;;;14.18;6.43;;;9.70;99.90;;;;;;4938040;29;20325;-92
2023/11/15 02:02:48;;;;;;;13.40;6.05;;;9.70;99.90;;;;;;4914000;28;20055;-93
2023/11/15 02:05:19;;;;;;;12.60;6.65;;;9.60;99.90;;;;;;4937433;28;20055;-92
2023/11/15 02:07:48;;;;;;;13.43;6.45;;;9.70;99.90;;;;;;4938267;28;20047;-93
2023/11/15 02:10:17;;;;;;;11.40;5.82;;;9.60;99.90;;;;;;4941652;28;20051;-92
2023/11/15 02:12:47;;;;;;;13.82;6.53;;;9.70;99.90;;;;;;4957657;28;20102;-92
2023/11/15 02:15:16;;;;;;;14.60;6.65;;;9.60;99.90;;;;;;4940571;28;20047;-93
2023/11/15 02:17:48;;;;;;;14.55;6.90;;;9.70;99.90;;;;;;4955275;28;20047;-91
2023/11/15 02:20:19;;;;;;;13.70;6.15;;;9.60;99.90;;;;;;4943471;29;20047;-92
2023/11/15 02:22:49;;;;;;;14.48;7.38;;;9.60;99.90;;;;;;4955682;28;20059;-92
2023/11/15 02:25:21;;;;;;;12.32;7.20;;;9.60;99.90;;;;;;4925326;29;20051;-91
2023/11/15 02:27:49;;;;;;;14.27;6.70;;;9.60;99.90;;;;;;4942436;29;20043;-92
2023/11/15 02:30:18;;;;;;;12.57;6.10;;;9.60;99.90;;;;;;4940564;28;20113;-92
2023/11/15 02:32:47;;;;;;;13.70;5.95;;;9.60;99.90;;;;;;4941590;28;20154;-92
2023/11/15 02:35:16;;;;;;;12.10;7.10;;;9.50;99.90;;;;;;4941664;28;20066;-93
2023/11/15 02:37:45;;;;;;;13.88;7.40;;;9.50;99.90;;;;;;4942252;29;20492;-93
2023/11/15 02:40:13;;;;;;;15.55;7.13;;;9.50;99.90;;;;;;4940272;28;20051;-92
2023/11/15 02:42:44;;;;;;;14.70;6.97;;;9.50;99.90;;;;;;4939630;28;20058;-93
2023/11/15 02:45:12;;;;;;;15.02;7.38;;;9.60;99.90;;;;;;4941239;29;20051;-92
2023/11/15 02:47:41;;;;;;;13.23;7.45;;;9.40;99.90;;;;;;4956109;28;20547;-91
2023/11/15 02:50:10;;;;;;;14.35;7.53;;;9.40;99.90;;;;;;4958532;28;20046;-91
2023/11/15 02:52:40;;;;;;;14.32;7.35;;;9.40;99.90;;;;;;4938994;29;20051;-92
2023/11/15 02:55:10;;;;;;;17.33;7.22;;;9.40;99.90;;;;;;4949673;28;20051;-90
2023/11/15 02:57:39;;;;;;;14.45;6.43;;;9.40;99.90;;;;;;4934352;29;20047;-91
2023/11/15 03:00:10;;;;;;;17.92;8.57;;;9.30;99.90;;;;;;4947584;28;20051;-92
2023/11/15 03:02:39;;;;;;;14.80;7.47;;;9.30;99.90;;;;;;4957819;28;22286;-93
2023/11/15 03:05:09;;;;;;;14.02;7.15;;;9.30;99.90;;;;;;4941465;28;20051;-91
2023/11/15 03:07:38;;;;;;;14.50;7.50;;;9.30;99.90;;;;;;4955568;28;20511;-92
2023/11/15 03:10:08;;;;;;;15.82;8.00;;;9.30;99.90;;;;;;4947483;29;20046;-91
2023/11/15 03:12:38;;;;;;;15.38;8.32;;;9.30;99.90;;;;;;4963238;28;20054;-92
2023/11/15 03:15:07;;;;;;;17.00;8.35;;;9.30;99.90;;;;;;4929796;28;20050;-93
2023/11/15 03:17:38;;;;;;;17.00;8.15;;;9.30;99.90;;;;;;4941274;28;20174;-91
2023/11/15 03:20:09;;;;;;;15.02;8.07;;;9.30;99.90;;;;;;4942618;28;22170;-90
2023/11/15 03:22:38;;;;;;;15.43;8.38;;;9.30;99.90;;;;;;4957583;28;20054;-93
2023/11/15 03:25:08;;;;;;;14.95;7.75;;;9.30;99.90;;;;;;4962390;28;20043;-91
2023/11/15 03:27:37;;;;;;;15.70;8.18;;;9.30;99.90;;;;;;4940714;28;20039;-93
2023/11/15 03:30:07;;;;;;;16.98;8.77;;;9.20;99.90;;;;;;4957778;28;20055;-93
2023/11/15 03:32:37;;;;;;;18.90;9.45;;;9.20;99.90;;;;;;4939812;28;20138;-92
2023/11/15 03:35:06;;;;;;;16.02;8.60;;;9.20;99.90;;;;;;4939775;28;20059;-92
2023/11/15 03:37:35;;;;;;;18.52;9.45;;;9.10;99.90;;;;;;4943363;29;20086;-92
2023/11/15 03:40:07;;;;;;;16.58;8.52;;;9.10;99.90;;;;;;4934802;29;20047;-92
2023/11/15 03:42:37;;;;;;;;;;;9.10;99.90;;;;;;4942349;28;20142;-93
2023/11/15 03:45:06;;;;;;;15.32;7.68;;;9.10;99.90;;;;;;4942635;29;19940;-93
2023/11/15 03:47:37;;;;;;;16.38;7.65;;;9.00;99.90;;;;;;4939765;29;20126;-91
2023/11/15 03:50:07;;;;;;;14.85;6.88;;;9.00;99.90;;;;;;4939763;28;20138;-91
2023/11/15 03:52:37;;;;;;;13.95;7.68;;;9.00;99.90;;;;;;4939210;28;22714;-92
2023/11/15 03:55:06;;;;;;;14.20;7.50;;;9.00;99.90;;;;;;4929779;28;20293;-92
2023/11/15 03:57:36;;;;;;;17.25;8.30;;;8.90;99.90;;;;;;4932834;28;22190;-91
2023/11/15 04:00:06;;;;;;;17.85;8.07;;;8.90;99.90;;;;;;4940599;28;20094;-91
2023/11/15 04:02:42;;;;;;;19.02;8.07;;;8.80;99.90;;;;;;4949088;28;20043;-90
2023/11/15 04:05:12;;;;;;;16.70;8.75;;;8.80;99.90;;;;;;4959196;28;20058;-92
2023/11/15 04:07:42;;;;;;;14.13;7.50;;;8.80;99.90;;;;;;4945573;28;20040;-91
2023/11/15 04:10:11;;;;;;;16.20;7.95;;;8.80;99.90;;;;;;4957298;28;20062;-94
2023/11/15 04:12:42;;;;;;;16.20;6.97;;;8.70;99.90;;;;;;4959422;28;20059;-89
2023/11/15 04:15:12;;;;;;;18.40;8.05;;;8.80;99.90;;;;;;4942370;29;20110;-90
2023/11/15 04:17:42;;;;;;;17.67;6.78;;;8.70;99.90;;;;;;4945489;28;20050;-91
2023/11/15 04:20:12;;;;;;;20.00;7.28;;;8.70;99.90;;;;;;4944524;29;20066;-92
2023/11/15 04:22:40;;;;;;;24.00;8.25;;;8.70;99.90;;;;;;4942725;28;21318;-90
2023/11/15 04:25:09;;;;;;;31.17;8.90;;;8.70;99.90;;;;;;4944303;28;20054;-90
2023/11/15 04:27:38;;;;;;;18.60;8.52;;;8.00;99.90;;;;;;4932959;28;20058;-93
2023/11/15 04:30:09;;;;;;;18.63;8.20;;;8.80;99.90;;;;;;4943150;29;20058;-92
2023/11/15 04:32:39;;;;;;;19.42;8.20;;;8.70;99.90;;;;;;4943678;28;20047;-91
2023/11/15 04:35:10;;;;;;;21.88;8.48;;;8.70;99.90;;;;;;4959746;28;20051;-90
2023/11/15 04:37:38;;;;;;;18.98;7.55;;;8.60;99.90;;;;;;4932789;29;20051;-91
2023/11/15 04:40:09;;;;;;;23.33;8.93;;;8.70;99.90;;;;;;4941908;28;20137;-92
2023/11/15 04:42:38;;;;;;;18.38;7.65;;;8.60;99.90;;;;;;4959107;28;20054;-91
2023/11/15 04:45:09;;;;;;;17.67;7.40;;;8.60;99.90;;;;;;4943399;29;20484;-91
2023/11/15 04:47:38;;;;;;;24.83;8.70;;;9.20;99.90;;;;;;4935237;29;20055;-91
2023/11/15 04:50:10;;;;;;;20.10;7.47;;;8.60;99.90;;;;;;4945036;28;20039;-92
2023/11/15 04:52:39;;;;;;;20.98;7.97;;;8.60;99.90;;;;;;4945515;28;20051;-92
2023/11/15 04:55:09;;;;;;;18.05;7.72;;;8.50;99.90;;;;;;4954155;28;20064;-91
2023/11/15 04:57:39;;;;;;;17.80;7.45;;;8.50;99.90;;;;;;4934155;29;20055;-90
2023/11/15 05:00:10;;;;;;;18.23;7.55;;;8.40;99.90;;;;;;4955048;28;20055;-91
2023/11/15 05:02:39;;;;;;;18.13;8.63;;;8.40;99.90;;;;;;4942877;28;20043;-91
2023/11/15 05:05:10;;;;;;;16.95;7.60;;;8.40;99.90;;;;;;4941793;29;20464;-91
2023/11/15 05:07:39;;;;;;;15.20;6.45;;;8.30;99.90;;;;;;4942213;28;20043;-91
2023/11/15 05:10:09;;;;;;;13.90;6.00;;;8.30;99.90;;;;;;4946782;28;20252;-90
2023/11/15 05:12:38;;;;;;;15.43;6.53;;;8.20;99.90;;;;;;4942307;28;20157;-91
2023/11/15 05:15:08;;;;;;;16.20;7.03;;;8.30;99.90;;;;;;4941059;28;20059;-91
2023/11/15 05:17:37;;;;;;;20.75;6.65;;;8.30;99.90;;;;;;4944203;28;20126;-90
2023/11/15 05:20:07;;;;;;;18.92;7.35;;;8.30;99.90;;;;;;4946450;28;20055;-91
2023/11/15 05:22:38;;;;;;;16.75;7.15;;;8.30;99.90;;;;;;4958743;28;20048;-90
2023/11/15 05:25:07;;;;;;;19.10;7.50;;;8.30;99.90;;;;;;4959309;28;20047;-91
2023/11/15 05:27:35;;;;;;;13.65;5.75;;;8.30;99.90;;;;;;4943585;28;20146;-90
2023/11/15 05:30:05;;;;;;;17.30;6.05;;;8.30;99.90;;;;;;4958560;28;20047;-92
2023/11/15 05:32:33;;;;;;;18.42;7.72;;;8.30;99.90;;;;;;4941374;29;20058;-88
2023/11/15 05:35:02;;;;;;;22.00;7.70;;;8.30;99.90;;;;;;4943071;28;20051;-89
2023/11/15 05:37:31;;;;;;;26.77;10.45;;;8.20;99.90;;;;;;4929546;28;20083;-91
2023/11/15 05:40:01;;;;;;;29.77;10.73;;;8.20;99.90;;;;;;4958286;28;20055;-90
2023/11/15 05:42:29;;;;;;;24.83;9.85;;;8.20;99.90;;;;;;4943917;29;20055;-91
2023/11/15 05:44:58;;;;;;;26.23;10.18;;;8.20;99.90;;;;;;4940126;28;20051;-90
2023/11/15 05:47:27;;;;;;;25.23;9.88;;;8.20;99.90;;;;;;4920567;28;20054;-90
2023/11/15 05:49:56;;;;;;;21.85;9.27;;;8.20;99.90;;;;;;4946905;28;20047;-90
2023/11/15 05:52:25;;;;;;;22.80;7.97;;;8.20;99.90;;;;;;4940657;28;20055;-90
2023/11/15 05:54:54;;;;;;;22.73;9.30;;;8.10;99.90;;;;;;4941943;28;20051;-89
2023/11/15 05:57:24;;;;;;;19.20;7.75;;;8.10;99.90;;;;;;4943096;29;20051;-91
2023/11/15 05:59:53;;;;;;;16.15;8.05;;;8.00;99.90;;;;;;4939273;28;20062;-90
2023/11/15 06:02:22;;;;;;;19.65;8.00;;;8.10;99.90;;;;;;4942941;28;20047;-90
2023/11/15 06:04:52;;;;;;;20.15;7.88;;;8.10;99.90;;;;;;4942222;28;20051;-91
2023/11/15 06:07:21;;;;;;;26.65;10.15;;;8.00;99.90;;;;;;4961118;28;20047;-90
2023/11/15 06:09:50;;;;;;;35.13;13.38;;;8.00;99.90;;;;;;4944639;28;20053;-89
2023/11/15 06:12:19;;;;;;;41.15;14.77;;;8.00;99.90;;;;;;4946948;28;20066;-91
2023/11/15 06:14:50;;;;;;;32.65;10.65;;;8.10;99.90;;;;;;4941740;29;20055;-90
2023/11/15 06:17:20;;;;;;;21.00;9.68;;;8.00;99.90;;;;;;4961799;28;20163;-90
2023/11/15 06:19:51;;;;;;;19.48;8.93;;;8.00;99.90;;;;;;4946526;28;20142;-90
2023/11/15 06:22:31;;;;;;;25.45;9.82;;;8.10;99.90;;;;;;4941226;28;20130;-90
2023/11/15 06:25:00;;;;;;;23.40;9.32;;;8.20;99.90;;;;;;4946181;28;20634;-89
2023/11/15 06:27:28;;;;;;;19.17;7.05;;;8.10;99.90;;;;;;4949025;29;20074;-90
2023/11/15 06:29:59;;;;;;;14.50;5.82;;;8.10;99.90;;;;;;4944121;29;20085;-91
2023/11/15 06:32:30;;;;;;;17.80;6.70;;;8.10;99.90;;;;;;4941773;29;20480;-90
2023/11/15 06:34:58;;;;;;;17.13;5.70;;;8.10;99.90;;;;;;4961514;28;20126;-90
2023/11/15 06:37:29;;;;;;;28.35;14.82;;;8.20;99.90;;;;;;4942388;29;20066;-90
2023/11/15 06:39:57;;;;;;;23.23;11.15;;;8.20;99.90;;;;;;4953777;28;20074;-91
2023/11/15 06:42:26;;;;;;;23.17;10.02;;;8.20;99.90;;;;;;4942073;29;20146;-91
2023/11/15 06:44:54;;;;;;;43.10;22.73;;;8.30;99.90;;;;;;4941684;28;20051;-90
2023/11/15 06:47:25;;;;;;;81.82;42.08;;;8.30;99.90;;;;;;4930286;28;20059;-90
2023/11/15 06:49:53;;;;;;;59.25;32.10;;;8.30;99.90;;;;;;4939716;29;20518;-90
2023/11/15 06:52:25;;;;;;;82.80;45.33;;;8.40;99.90;;;;;;4936731;28;20054;-90
2023/11/15 06:54:53;;;;;;;77.35;44.70;;;8.40;99.90;;;;;;4940666;28;20062;-91
2023/11/15 06:57:22;;;;;;;49.92;34.08;;;8.50;99.90;;;;;;4937333;29;20062;-91
2023/11/15 06:59:51;;;;;;;21.30;13.48;;;8.50;99.90;;;;;;4952854;28;20090;-91
2023/11/15 07:02:20;;;;;;;17.98;10.35;;;8.60;99.90;;;;;;4955087;28;20047;-90
2023/11/15 07:04:52;;;;;;;22.13;8.30;;;8.60;99.90;;;;;;4954076;28;20051;-91
2023/11/15 07:07:21;;;;;;;18.93;9.37;;;8.70;99.90;;;;;;4940447;29;20051;-91
2023/11/15 07:09:50;;;;;;;20.27;8.80;;;8.80;99.90;;;;;;4950402;28;20052;-90
2023/11/15 07:12:19;;;;;;;21.00;8.25;;;8.80;99.90;;;;;;4939415;29;20043;-91
2023/11/15 07:14:48;;;;;;;20.90;9.20;;;8.90;99.90;;;;;;4954277;28;20051;-91
2023/11/15 07:17:19;;;;;;;27.10;11.30;;;8.90;99.90;;;;;;4954396;28;20051;-93
2023/11/15 07:19:48;;;;;;;16.27;7.13;;;9.00;99.90;;;;;;4938125;29;20115;-92
2023/11/15 07:22:18;;;;;;;17.45;6.85;;;9.10;99.90;;;;;;4956660;28;20055;-91
2023/11/15 07:24:47;;;;;;;13.27;5.38;;;9.10;99.90;;;;;;4942085;28;20043;-92
2023/11/15 07:27:17;;;;;;;15.80;5.70;;;9.20;99.90;;;;;;4938021;29;22197;-89
2023/11/15 07:29:46;;;;;;;11.27;3.95;;;9.20;99.90;;;;;;4937803;28;20130;-92
2023/11/15 07:32:17;;;;;;;7.53;2.97;;;9.30;99.90;;;;;;4935890;28;20051;-93
2023/11/15 07:34:45;;;;;;;6.05;2.47;;;9.40;99.90;;;;;;4941943;29;20066;-91
2023/11/15 07:37:15;;;;;;;6.18;2.33;;;9.50;99.90;;;;;;4934627;29;20717;-91
2023/11/15 07:39:45;;;;;;;3.92;1.70;;;9.60;99.90;;;;;;4932303;28;20051;-93
2023/11/15 07:42:14;;;;;;;3.17;1.25;;;9.80;99.90;;;;;;4919887;28;20106;-92
2023/11/15 07:44:45;;;;;;;3.08;0.85;;;10.00;99.90;;;;;;4939017;28;20043;-89
2023/11/15 07:47:17;;;;;;;4.53;1.25;;;10.30;99.90;;;;;;4937811;28;20737;-91
2023/11/15 07:49:45;;;;;;;2.17;0.80;;;10.50;99.90;;;;;;4958985;28;20055;-90
2023/11/15 07:52:14;;;;;;;2.15;0.50;;;10.80;99.90;;;;;;4945678;28;20046;-91
2023/11/15 07:54:44;;;;;;;1.77;0.20;;;11.00;99.90;;;;;;4944841;28;20078;-92
2023/11/15 07:57:13;;;;;;;0.50;0.00;;;11.20;99.90;;;;;;4942343;28;20058;-92
2023/11/15 07:59:41;;;;;;;2.95;0.30;;;11.30;99.90;;;;;;4942336;28;20055;-90
2023/11/15 08:02:11;;;;;;;0.77;0.10;;;11.50;99.90;;;;;;4945119;28;20516;-94
2023/11/15 08:04:43;;;;;;;1.55;0.10;;;11.70;99.90;;;;;;4921195;29;20055;-90
2023/11/15 08:07:12;;;;;;;2.05;0.10;;;11.60;99.90;;;;;;4922981;28;20050;-90
2023/11/15 08:09:41;;;;;;;2.75;0.63;;;11.60;99.90;;;;;;4941085;28;21021;-89
2023/11/15 08:12:12;;;;;;;0.88;0.10;;;11.80;99.90;;;;;;4920991;29;20076;-91
2023/11/15 08:14:40;;;;;;;0.95;0.25;;;11.80;99.90;;;;;;4916640;29;20126;-91
2023/11/15 08:17:11;;;;;;;0.47;0.00;;;11.80;99.90;;;;;;4923161;28;20051;-88
2023/11/15 08:19:40;;;;;;;0.70;0.10;;;11.80;99.90;;;;;;4922266;28;20106;-90
2023/11/15 08:22:08;;;;;;;0.60;0.10;;;11.90;99.90;;;;;;4924458;28;20059;-91
2023/11/15 08:24:38;;;;;;;0.73;0.10;;;12.00;99.90;;;;;;4940020;28;20591;-89
2023/11/15 08:27:06;;;;;;;2.83;0.10;;;12.10;99.90;;;;;;4922924;29;20166;-91
2023/11/15 08:29:38;;;;;;;2.33;0.28;;;12.20;99.90;;;;;;4916228;28;20066;-91
2023/11/15 08:32:11;;;;;;;0.75;0.10;;;12.10;99.90;;;;;;4921940;29;20169;-92
2023/11/15 08:34:41;;;;;;;0.43;0.00;;;12.30;99.90;;;;;;4921879;29;20938;-90
2023/11/15 08:37:12;;;;;;;0.70;0.15;;;12.30;99.90;;;;;;4940017;29;20254;-93
2023/11/15 08:39:42;;;;;;;0.25;0.00;;;12.30;99.90;;;;;;4942582;29;20488;-92
2023/11/15 08:42:10;;;;;;;2.40;0.10;;;12.50;99.90;;;;;;4924200;28;20110;-88
2023/11/15 08:44:43;;;;;;;1.35;0.10;;;12.50;99.90;;;;;;4923192;29;20051;-91
2023/11/15 08:47:11;;;;;;;2.35;0.10;;;12.60;99.90;;;;;;4914185;28;20051;-88
2023/11/15 08:49:42;;;;;;;0.28;0.00;;;12.50;99.90;;;;;;4924206;29;20047;-90
2023/11/15 08:52:12;;;;;;;1.65;0.08;;;12.40;99.90;;;;;;4904525;29;20870;-92
2023/11/15 08:54:41;;;;;;;0.60;0.00;;;12.30;99.90;;;;;;4942819;28;20074;-88
2023/11/15 08:57:10;;;;;;;0.75;0.55;;;12.30;99.90;;;;;;4922424;29;20345;-92
2023/11/15 08:59:40;;;;;;;1.55;0.10;;;12.40;99.90;;;;;;4930629;29;22372;-88
2023/11/15 09:02:10;;;;;;;0.80;0.00;;;12.30;99.90;;;;;;4925948;29;20055;-86
2023/11/15 09:04:40;;;;;;;1.65;0.10;;;12.40;99.90;;;;;;4928421;29;20074;-91
2023/11/15 09:07:09;;;;;;;1.55;0.10;;;12.40;99.90;;;;;;4945036;28;20784;-90
2023/11/15 09:09:40;;;;;;;0.60;0.10;;;12.50;99.90;;;;;;4924595;28;20082;-94
2023/11/15 09:12:10;;;;;;;0.50;0.10;;;12.40;99.90;;;;;;4922375;29;20051;-88
2023/11/15 09:14:40;;;;;;;2.38;0.10;;;12.30;99.90;;;;;;4943303;28;20059;-90
2023/11/15 09:17:16;;;;;;;0.82;0.10;;;12.20;99.90;;;;;;4938802;28;20052;-92
2023/11/15 09:19:49;;;;;;;0.65;0.10;;;12.10;99.90;;;;;;4921793;28;20051;-92
2023/11/15 09:22:18;;;;;;;;;;;12.20;99.90;;;;;;4935190;29;20523;-94
2023/11/15 09:24:46;;;;;;;0.20;0.10;;;12.20;99.90;;;;;;4945551;28;19938;-93
2023/11/15 09:27:22;;;;;;;1.45;0.10;;;12.20;99.90;;;;;;4923916;29;20087;-93
2023/11/15 09:29:52;;;;;;;0.65;0.30;;;12.20;99.90;;;;;;4943249;28;20150;-91
2023/11/15 09:32:21;;;;;;;1.33;0.28;;;12.20;99.90;;;;;;4916598;29;20047;-92
2023/11/15 09:34:50;;;;;;;0.88;0.43;;;12.00;99.90;;;;;;4914710;28;20047;-90
2023/11/15 09:37:18;;;;;;;0.85;0.10;;;11.90;99.90;;;;;;4939889;28;20043;-93
2023/11/15 09:39:47;;;;;;;0.43;0.00;;;11.90;99.90;;;;;;4924265;28;20051;-89
2023/11/15 09:42:19;;;;;;;0.75;0.08;;;12.00;99.90;;;;;;4920014;29;20341;-91
2023/11/15 09:44:49;;;;;;;0.38;0.00;;;12.10;99.90;;;;;;4937364;28;20055;-87
2023/11/15 09:47:19;;;;;;;1.65;0.10;;;12.30;99.90;;;;;;4919396;29;20058;-89
2023/11/15 09:49:51;;;;;;;1.70;0.30;;;12.20;99.90;;;;;;4923583;29;23767;-91
2023/11/15 09:52:19;;;;;;;0.40;0.00;;;12.10;99.90;;;;;;4936464;28;20051;-91
2023/11/15 09:54:49;;;;;;;0.20;0.00;;;12.20;99.90;;;;;;4922028;29;22370;-93
2023/11/15 09:57:20;;;;;;;1.73;0.20;;;12.10;99.90;;;;;;4938891;28;20054;-91
2023/11/15 09:59:49;;;;;;;1.13;0.30;;;12.20;99.90;;;;;;4921269;29;20054;-92
2023/11/15 10:02:36;;;;;;;1.17;0.00;;;12.10;99.90;;;;;;4941988;29;20062;-92
2023/11/15 10:05:18;;;;;;;0.65;0.17;;;12.10;99.90;;;;;;4939075;28;20066;-89
2023/11/15 10:07:48;;;;;;;1.90;0.75;;;12.00;99.90;;;;;;4940246;28;20055;-90
2023/11/15 10:10:19;;;;;;;0.55;0.10;;;12.20;99.90;;;;;;4923710;29;20055;-92
2023/11/15 10:12:50;;;;;;;4.85;3.78;;;12.10;99.90;;;;;;4930212;29;20055;-88
2023/11/15 10:15:30;;;;;;;1.13;0.00;;;12.20;99.90;;;;;;4924369;29;20062;-89
2023/11/15 10:18:03;;;;;;;2.20;0.10;;;12.20;99.90;;;;;;4922168;29;20071;-90
2023/11/15 10:20:33;;;;;;;0.20;0.00;;;12.10;99.90;;;;;;4939510;28;20065;-89
2023/11/15 10:23:02;;;;;;;0.40;0.05;;;12.10;99.90;;;;;;4926610;29;22121;-90
2023/11/15 10:25:31;;;;;;;0.60;0.20;;;12.20;99.90;;;;;;4940014;28;20485;-89
2023/11/15 10:28:07;;;;;;;0.28;0.10;;;12.20;99.90;;;;;;4925742;29;20582;-89
2023/11/15 10:30:36;;;;;;;2.50;0.80;;;12.10;99.90;;;;;;4939389;28;20114;-93
2023/11/15 10:33:10;;;;;;;2.78;1.77;;;12.10;99.90;;;;;;4934835;29;20051;-87
2023/11/15 10:35:40;;;;;;;5.32;4.45;;;12.10;99.90;;;;;;4943670;29;20047;-89
2023/11/15 10:38:14;;;;;;;1.73;0.20;;;12.00;99.90;;;;;;4922574;28;20062;-89
2023/11/15 10:40:44;;;;;;;0.73;0.00;;;11.90;99.90;;;;;;4943489;29;20069;-90
2023/11/15 10:43:15;;;;;;;1.50;0.73;;;12.00;99.90;;;;;;4926246;29;20051;-91
2023/11/15 10:45:45;;;;;;;3.27;1.20;;;12.00;99.90;;;;;;4924397;29;20137;-92
2023/11/15 10:48:17;;;;;;;0.70;0.00;;;12.00;99.90;;;;;;4943563;28;20056;-89
2023/11/15 10:50:57;;;;;;;1.02;0.20;;;12.10;99.90;;;;;;4922964;29;20071;-91
2023/11/15 10:53:35;;;;;;;0.35;0.20;;;12.10;99.90;;;;;;4925288;29;20051;-91
2023/11/15 10:56:09;;;;;;;0.45;0.20;;;12.10;99.90;;;;;;4919078;29;20055;-94
2023/11/15 10:58:39;;;;;;;0.63;0.50;;;12.20;99.90;;;;;;4959782;28;20228;-92
2023/11/15 11:01:12;;;;;;;0.30;0.30;;;12.20;99.90;;;;;;4941094;29;20102;-95
2023/11/15 11:03:44;;;;;;;0.10;0.00;;;12.20;99.90;;;;;;4942369;28;20063;-94
2023/11/15 11:06:24;;;;;;;1.17;0.00;;;12.20;99.90;;;;;;4943611;29;20066;-94
2023/11/15 11:09:09;;;;;;;1.05;0.00;;;12.20;99.90;;;;;;4943673;29;20058;-92
2023/11/15 11:11:46;;;;;;;0.10;0.00;;;12.20;99.90;;;;;;4945622;28;20079;-89
2023/11/15 11:14:25;;;;;;;0.10;0.00;;;12.30;99.90;;;;;;4946031;28;20043;-91
2023/11/15 11:16:56;;;;;;;0.13;0.00;;;12.30;99.90;;;;;;4948623;28;20106;-92
2023/11/15 11:19:29;;;;;;;0.63;0.00;;;12.30;99.90;;;;;;4963448;28;20075;-92
2023/11/15 11:22:07;;;;;;;0.20;0.00;;;12.40;99.90;;;;;;4944883;28;20051;-91
2023/11/15 11:24:41;;;;;;;3.67;3.33;;;12.40;99.90;;;;;;4945441;28;20047;-93
2023/11/15 11:27:36;;;;;;;0.20;0.00;;;12.50;99.90;;;;;;4939636;28;20082;-92
2023/11/15 11:30:28;;;;;;;0.20;0.00;;;12.50;99.90;;;;;;4946374;29;20066;-91
2023/11/15 11:33:15;;;;;;;0.70;0.10;;;12.50;99.90;;;;;;4954035;28;20053;-95
2023/11/15 11:35:50;;;;;;;0.32;0.00;;;12.50;99.90;;;;;;4951471;28;20051;-93
2023/11/15 11:38:47;;;;;;;0.20;0.00;;;12.50;99.90;;;;;;4927568;29;20043;-93
2023/11/15 11:44:28;;;;;;;0.90;0.08;;;12.50;99.90;;;;;;4873403;29;20056;-92
2023/11/15 11:47:11;;;;;;;1.55;0.00;;;12.50;99.90;;;;;;4876391;29;20127;-94
2023/11/15 11:49:50;;;;;;;2.17;0.08;;;12.50;99.90;;;;;;4859014;29;20053;-92
2023/11/15 11:52:23;;;;;;;1.23;0.00;;;12.50;99.90;;;;;;4891850;29;20058;-92
2023/11/15 11:54:55;;;;;;;0.43;0.10;;;12.50;99.90;;;;;;4876505;29;20105;-92
2023/11/15 11:57:26;;;;;;;1.40;0.00;;;12.50;99.90;;;;;;4874845;29;20147;-93
2023/11/15 12:00:04;;;;;;;1.92;0.20;;;12.60;99.90;;;;;;4872382;29;20151;-93
2023/11/15 12:02:35;;;;;;;0.38;0.10;;;12.50;99.90;;;;;;4891898;29;20048;-92
2023/11/15 12:05:05;;;;;;;0.17;0.00;;;12.60;99.90;;;;;;4910010;29;20062;-93
2023/11/15 12:07:45;;;;;;;1.00;0.00;;;12.60;99.90;;;;;;4927960;29;20056;-94
2023/11/15 12:10:20;;;;;;;0.05;0.00;;;12.60;99.90;;;;;;4915882;29;20060;-93
2023/11/15 12:13:00;;;;;;;0.75;0.10;;;12.60;99.90;;;;;;4929630;29;20055;-95
2023/11/15 12:15:35;;;;;;;1.08;0.00;;;12.50;99.90;;;;;;4926041;28;20507;-94
2023/11/15 12:18:04;;;;;;;0.13;0.00;;;13.70;99.90;;;;;;4945832;29;20043;-93
2023/11/15 12:21:14;;;;;;;0.50;0.10;;;12.50;99.90;;;;;;4907107;23;20059;-77
2023/11/15 12:23:44;;;;;;;1.33;0.05;;;12.50;99.90;;;;;;4881596;29;20040;-76
2023/11/15 12:26:14;;;;;;;2.08;0.45;;;12.50;99.90;;;;;;4892244;29;20067;-78
2023/11/15 12:28:43;;;;;;;1.15;0.08;;;12.60;99.90;;;;;;4880233;29;20071;-76
2023/11/15 12:31:13;;;;;;;2.40;0.55;;;12.50;99.90;;;;;;4877460;29;20052;-77
2023/11/15 12:33:44;;;;;;;0.20;0.00;;;12.50;99.90;;;;;;4878279;29;20178;-77
2023/11/15 12:36:15;;;;;;;1.48;0.40;;;12.40;99.90;;;;;;4886122;29;20051;-76
2023/11/15 12:38:55;;;;;;;0.20;0.00;;;12.50;99.90;;;;;;4908349;23;20056;-92
2023/11/15 12:41:25;;;;;;;0.90;0.00;;;12.50;99.90;;;;;;4913353;29;20092;-93
2023/11/15 12:44:03;;;;;;;0.45;0.10;;;12.50;99.90;;;;;;4909814;29;20642;-93
2023/11/15 12:46:31;;;;;;;0.32;0.10;;;12.60;99.90;;;;;;4913430;29;20055;-92
2023/11/15 12:49:01;;;;;;;0.35;0.00;;;12.70;99.90;;;;;;4931042;29;20110;-92
2023/11/15 12:51:32;;;;;;;0.50;0.15;;;12.80;99.90;;;;;;4927129;29;20062;-92
2023/11/15 12:54:04;;;;;;;0.40;0.10;;;12.90;99.90;;;;;;4909664;29;20335;-91
2023/11/15 12:56:33;;;;;;;0.25;0.00;;;12.90;99.90;;;;;;4912700;29;20051;-93
2023/11/15 12:59:02;;;;;;;0.20;0.00;;;13.00;99.90;;;;;;4914973;29;20052;-92
2023/11/15 13:01:30;;;;;;;1.38;0.20;;;12.70;99.80;;;;;;4912726;29;20044;-93
2023/11/15 13:03:59;;;;;;;0.57;0.10;;;12.60;99.90;;;;;;4918269;29;20075;-93
2023/11/15 13:06:36;;;;;;;0.38;0.00;;;12.60;99.90;;;;;;4893916;29;20054;-92
2023/11/15 13:09:12;;;;;;;0.25;0.10;;;12.60;99.90;;;;;;4928868;29;20050;-94